Time;durP1;ratioP1;P1;durP2;ratioP2;P2;SDS_P1;SDS_P2;PMS_P1;PMS_P2;Temp;Humidity;BMP_temperature;BMP_pressure;BME280_temperature;BME280_humidity;BME280_pressure;Samples;Min_cycle;Max_cycle;Signal;HPM_P1;HPM_P2
2024/04/19 00:01:38;;;;;;;1.55;1.10;;;;;;;9.55;53.30;100240.41;11424414;25;19996;-66
2024/04/19 00:06:40;;;;;;;2.08;1.48;;;;;;;9.66;53.53;100278.63;11438956;25;20682;-67
2024/04/19 00:11:41;;;;;;;2.78;1.50;;;;;;;9.47;53.60;100269.38;11405864;25;19993;-66
2024/04/19 00:16:43;;;;;;;2.28;1.50;;;;;;;9.33;54.41;100262.44;11441187;25;20018;-66
2024/04/19 00:21:45;;;;;;;2.05;1.80;;;;;;;9.22;54.66;100237.63;11423782;25;20071;-65
2024/04/19 00:26:47;;;;;;;2.53;1.42;;;;;;;9.18;54.78;100243.19;11394793;25;20078;-66
2024/04/19 00:31:49;;;;;;;1.75;1.30;;;;;;;9.19;55.14;100238.75;11416241;25;20005;-65
2024/04/19 00:36:53;;;;;;;3.13;1.60;;;;;;;9.17;54.94;100230.88;11391058;25;20167;-66
2024/04/19 00:41:56;;;;;;;3.45;1.60;;;;;;;9.08;55.92;100233.38;11412294;25;20002;-66
2024/04/19 00:46:58;;;;;;;3.13;2.28;;;;;;;9.09;56.05;100227.94;11395404;25;20029;-65
2024/04/19 00:52:00;;;;;;;3.38;2.03;;;;;;;8.90;56.68;100227.63;11418952;25;20041;-66
2024/04/19 00:57:03;;;;;;;4.22;1.65;;;;;;;8.92;56.99;100215.94;11355740;25;20051;-64
2024/04/19 01:02:05;;;;;;;2.53;1.85;;;;;;;8.88;57.84;100197.69;11458991;25;20049;-65
2024/04/19 01:07:06;;;;;;;3.38;1.77;;;;;;;8.82;57.61;100167.97;11451648;25;20001;-66
2024/04/19 01:12:08;;;;;;;3.25;2.10;;;;;;;8.92;57.95;100204.47;11460394;25;20003;-66
2024/04/19 01:17:10;;;;;;;3.35;2.33;;;;;;;8.99;58.35;100184.44;11384076;25;20005;-66
2024/04/19 01:22:12;;;;;;;4.93;2.33;;;;;;;8.68;58.70;100138.97;11427175;25;19997;-66
2024/04/19 01:27:17;;;;;;;;;;;;;;;8.84;59.01;100174.03;11432723;25;20024;-66
2024/04/19 01:32:18;;;;;;;3.55;2.28;;;;;;;8.92;58.96;100151.38;11454777;25;19924;-66
2024/04/19 01:37:20;;;;;;;3.55;2.22;;;;;;;8.78;59.71;100139.13;11458724;25;20029;-65
2024/04/19 01:42:21;;;;;;;2.33;1.75;;;;;;;8.57;60.48;100138.91;11456438;25;20012;-66
2024/04/19 01:47:23;;;;;;;3.15;2.00;;;;;;;8.58;60.36;100132.66;11426574;25;20017;-65
2024/04/19 01:52:27;;;;;;;2.10;1.90;;;;;;;8.63;60.67;100125.19;11414533;25;20064;-66
2024/04/19 01:57:30;;;;;;;2.67;1.90;;;;;;;8.55;60.75;100101.88;11453432;25;20001;-65
2024/04/19 02:02:31;;;;;;;4.82;2.30;;;;;;;8.59;60.55;100107.84;11414221;25;20001;-66
2024/04/19 02:07:33;;;;;;;4.68;2.10;;;;;;;8.33;61.43;100107.88;11420093;25;20071;-65
2024/04/19 02:12:34;;;;;;;3.88;2.30;;;;;;;8.32;61.47;100108.88;11442519;25;20085;-66
2024/04/19 02:17:36;;;;;;;4.07;2.47;;;;;;;8.29;61.32;100106.44;11415210;25;20020;-66
2024/04/19 02:22:37;;;;;;;4.75;2.83;;;;;;;8.29;61.95;100093.19;11394072;25;20072;-65
2024/04/19 02:32:59;;;;;;;2.50;2.15;;;;;;;8.24;62.29;100067.00;11383119;25;20294;-66
2024/04/19 02:38:01;;;;;;;3.60;2.25;;;;;;;8.21;62.65;100056.63;11463070;25;20006;-65
2024/04/19 02:43:02;;;;;;;3.38;2.15;;;;;;;8.22;62.32;100037.09;11391748;25;20431;-66
2024/04/19 02:48:04;;;;;;;3.60;1.92;;;;;;;8.25;62.52;100028.91;11432153;25;20008;-65
2024/04/19 02:53:05;;;;;;;3.60;2.25;;;;;;;8.26;62.45;100022.66;11425029;25;20003;-66
2024/04/19 02:58:08;;;;;;;4.00;2.60;;;;;;;8.11;63.26;100008.72;11446767;25;20001;-66
2024/04/19 03:03:10;;;;;;;3.28;2.53;;;;;;;7.97;63.36;99995.63;11461397;25;20838;-66
2024/04/19 03:08:12;;;;;;;3.33;2.25;;;;;;;8.20;63.47;100003.72;11389874;25;20578;-65
2024/04/19 03:13:14;;;;;;;4.70;3.50;;;;;;;8.23;63.87;100020.22;11421709;25;19996;-64
2024/04/19 03:18:17;;;;;;;3.80;2.85;;;;;;;8.34;62.66;100024.72;11434383;25;20000;-65
2024/04/19 03:23:18;;;;;;;4.97;2.38;;;;;;;8.44;62.56;100023.13;11432751;25;20496;-65
2024/04/19 03:28:20;;;;;;;2.20;1.55;;;;;;;8.31;62.40;100019.66;11397891;25;20041;-65
2024/04/19 03:33:23;;;;;;;3.53;1.83;;;;;;;8.42;64.60;99995.84;11438859;25;20001;-66
2024/04/19 03:38:28;;;;;;;4.13;1.63;;;;;;;8.48;65.05;100006.00;11462166;25;20007;-66
2024/04/19 03:43:33;;;;;;;2.50;1.43;;;;;;;8.40;65.23;99984.47;11424690;25;20229;-66
2024/04/19 03:48:35;;;;;;;1.73;1.42;;;;;;;8.40;66.20;99984.47;11431306;25;20144;-65
2024/04/19 03:53:37;;;;;;;3.15;2.00;;;;;;;8.41;66.43;99980.88;11416136;25;20139;-65
2024/04/19 03:58:39;;;;;;;3.45;2.50;;;;;;;8.38;67.24;99967.84;11456189;25;19997;-65
2024/04/19 04:03:40;;;;;;;2.88;2.20;;;;;;;8.38;67.98;99962.53;11393864;25;20817;-66
2024/04/19 04:08:42;;;;;;;2.03;1.85;;;;;;;8.51;68.01;99964.28;11435054;25;20006;-65
2024/04/19 04:13:43;;;;;;;2.35;2.10;;;;;;;8.47;68.73;99951.25;11425348;25;20057;-65
2024/04/19 04:18:47;;;;;;;2.33;2.00;;;;;;;8.40;68.35;99954.47;11356364;25;20013;-66
2024/04/19 04:23:51;;;;;;;5.53;2.40;;;;;;;8.39;69.76;99948.31;11430607;25;20115;-66
2024/04/19 04:28:52;;;;;;;2.53;2.33;;;;;;;8.45;70.34;99931.97;11373939;25;20026;-66
2024/04/19 04:33:54;;;;;;;3.13;2.00;;;;;;;8.55;69.89;99928.59;11396518;25;20102;-66
2024/04/19 04:38:55;;;;;;;3.72;2.50;;;;;;;8.53;69.85;99903.97;11416881;25;20008;-66
2024/04/19 04:43:57;;;;;;;2.53;2.33;;;;;;;8.41;71.13;99922.53;11452107;25;19996;-65
2024/04/19 04:49:00;;;;;;;4.10;2.45;;;;;;;8.11;71.61;99896.53;11454825;25;20000;-65
2024/04/19 04:54:02;;;;;;;2.30;2.10;;;;;;;7.89;70.71;99900.78;11442040;25;20057;-66
2024/04/19 04:59:03;;;;;;;2.88;2.60;;;;;;;8.01;71.45;99912.28;11416596;25;20013;-66
2024/04/19 05:04:05;;;;;;;2.78;2.40;;;;;;;8.01;71.34;99901.69;11445307;25;19996;-66
2024/04/19 05:09:07;;;;;;;2.67;2.47;;;;;;;7.75;72.32;99899.19;11474462;25;20524;-66
2024/04/19 05:14:08;;;;;;;3.85;3.13;;;;;;;7.59;72.28;99901.28;11443183;25;20041;-66
2024/04/19 05:19:10;;;;;;;2.20;1.98;;;;;;;7.42;74.71;99886.63;11433881;25;20469;-66
2024/04/19 05:24:11;;;;;;;3.05;1.83;;;;;;;7.42;75.28;99886.63;11433102;25;20558;-66
2024/04/19 05:29:13;;;;;;;3.50;1.60;;;;;;;7.30;75.78;99877.78;11384342;25;20721;-67
2024/04/19 05:34:15;;;;;;;1.40;1.10;;;;;;;7.17;75.10;99859.28;11446231;25;20824;-66
2024/04/19 05:39:17;;;;;;;1.55;0.88;;;;;;;7.23;75.17;99864.13;11346260;25;20001;-65
2024/04/19 05:44:19;;;;;;;1.33;0.65;;;;;;;6.98;76.25;99865.06;11407630;25;20001;-66
2024/04/19 05:49:22;;;;;;;0.90;0.57;;;;;;;7.03;76.91;99868.22;11393963;26;20065;-67
2024/04/19 05:54:25;;;;;;;2.07;0.67;;;;;;;7.05;76.31;99853.06;11432871;25;20001;-67
2024/04/19 05:59:27;;;;;;;0.98;0.85;;;;;;;6.87;77.22;99815.53;11444636;25;20001;-67
2024/04/19 06:04:28;;;;;;;1.33;1.23;;;;;;;6.84;79.03;99825.53;11470869;25;20028;-65
2024/04/19 06:09:30;;;;;;;3.17;1.17;;;;;;;6.67;79.94;99827.56;11407758;25;20010;-65
2024/04/19 06:14:31;;;;;;;2.30;1.13;;;;;;;6.77;79.39;99797.81;11484499;25;20004;-65
2024/04/19 06:19:33;;;;;;;1.90;1.48;;;;;;;6.65;80.55;99800.41;11450477;25;20038;-64
2024/04/19 06:24:36;;;;;;;1.50;1.30;;;;;;;6.70;81.87;99778.91;11461999;25;20017;-66
2024/04/19 06:29:38;;;;;;;1.63;1.35;;;;;;;6.70;82.35;99777.09;11453179;25;20016;-65
2024/04/19 06:34:39;;;;;;;2.72;2.42;;;;;;;6.82;82.67;99758.66;11459636;25;19998;-66
2024/04/19 06:39:40;;;;;;;2.20;2.00;;;;;;;6.84;82.24;99756.72;11469410;25;20017;-67
2024/04/19 06:45:03;;;;;;;2.60;2.40;;;;;;;6.70;84.44;99748.00;11421402;25;20008;-64
2024/04/19 06:50:09;;;;;;;2.60;2.38;;;;;;;6.70;84.74;99740.06;11381648;25;20014;-65
2024/04/19 06:55:12;;;;;;;3.22;2.45;;;;;;;6.82;84.59;99743.63;11401412;25;20009;-67
2024/04/19 07:00:15;;;;;;;3.28;2.97;;;;;;;6.57;85.20;99725.19;11484202;25;20415;-65
2024/04/19 07:05:37;;;;;;;4.18;3.20;;;;;;;6.71;85.75;99730.31;11456659;25;20000;-65
2024/04/19 07:10:39;;;;;;;3.72;3.30;;;;;;;6.76;86.15;99722.06;11462699;25;20100;-67
2024/04/19 07:15:40;;;;;;;3.13;2.88;;;;;;;6.79;86.21;99708.63;11448985;25;20015;-66
2024/04/19 07:20:42;;;;;;;4.30;3.30;;;;;;;6.82;86.22;99688.06;11467646;25;20008;-65
2024/04/19 07:25:44;;;;;;;3.38;3.08;;;;;;;6.85;85.28;99681.69;11411280;25;20800;-70
2024/04/19 07:30:45;;;;;;;3.70;2.70;;;;;;;6.94;82.95;99674.88;11379931;25;20458;-67
2024/04/19 07:35:49;;;;;;;3.28;2.85;;;;;;;6.92;83.87;99664.41;11420364;25;20044;-68
2024/04/19 07:40:51;;;;;;;3.70;2.65;;;;;;;6.94;84.27;99641.31;11387133;25;20004;-67
2024/04/19 07:45:53;;;;;;;3.05;2.83;;;;;;;7.01;84.06;99637.25;11403900;25;20006;-67
2024/04/19 07:50:55;;;;;;;3.47;3.08;;;;;;;7.00;84.74;99640.84;11414405;25;20000;-66
2024/04/19 07:55:58;;;;;;;4.68;3.80;;;;;;;7.02;85.99;99616.94;11469742;25;20533;-67
2024/04/19 08:00:59;;;;;;;4.10;3.42;;;;;;;7.14;86.17;99604.56;11427164;25;20750;-67
2024/04/19 08:06:06;;;;;;;3.78;3.40;;;;;;;6.99;85.56;99599.47;11438537;25;19998;-65
2024/04/19 08:11:08;;;;;;;4.47;3.08;;;;;;;6.88;86.52;99583.59;11444745;25;20013;-67
2024/04/19 08:16:11;;;;;;;4.38;3.22;;;;;;;6.94;87.13;99582.28;11480537;25;20019;-67
2024/04/19 08:21:17;;;;;;;4.00;3.25;;;;;;;6.78;88.00;99540.25;11435397;25;20010;-65
2024/04/19 08:26:18;;;;;;;3.75;3.45;;;;;;;6.94;89.08;99556.66;11476715;25;19997;-67
2024/04/19 08:31:19;;;;;;;3.97;3.67;;;;;;;6.97;90.78;99558.22;11412062;25;20005;-67
2024/04/19 08:36:22;;;;;;;4.15;3.83;;;;;;;6.79;91.42;99558.66;11465388;25;20013;-66
2024/04/19 08:41:29;;;;;;;4.68;3.70;;;;;;;6.84;92.87;99547.72;11482084;25;20015;-67
2024/04/19 08:46:32;;;;;;;4.60;3.63;;;;;;;7.00;93.31;99539.47;11446119;25;19998;-63
2024/04/19 08:51:37;;;;;;;4.47;4.07;;;;;;;7.06;93.30;99541.66;11439044;25;20079;-65
2024/04/19 08:56:59;;;;;;;5.30;4.32;;;;;;;7.02;94.66;99522.50;11447318;25;20010;-66
2024/04/19 09:02:01;;;;;;;3.72;3.42;;;;;;;7.16;93.76;99516.16;11425388;25;20067;-66
2024/04/19 09:07:03;;;;;;;4.53;4.13;;;;;;;7.14;94.93;99510.13;11400202;25;20420;-65
2024/04/19 09:12:08;;;;;;;4.78;4.38;;;;;;;7.07;94.85;99477.16;11412182;25;20012;-64
2024/04/19 09:17:10;;;;;;;4.70;4.30;;;;;;;7.07;95.87;99504.47;11404537;25;20556;-66
2024/04/19 09:22:15;;;;;;;4.53;4.13;;;;;;;7.08;96.99;99490.25;11411893;25;19997;-67
2024/04/19 09:27:17;;;;;;;7.13;5.15;;;;;;;7.15;97.32;99484.50;11391921;25;20118;-67
2024/04/19 09:32:21;;;;;;;5.53;4.05;;;;;;;7.20;96.71;99461.16;11470882;25;20001;-65
2024/04/19 09:37:25;;;;;;;6.47;3.30;;;;;;;7.25;95.15;99474.84;11479269;25;20071;-66
2024/04/19 09:42:27;;;;;;;4.68;3.72;;;;;;;7.17;97.83;99464.03;11474325;25;20000;-67
2024/04/19 09:47:33;;;;;;;3.95;3.35;;;;;;;7.19;97.32;99459.47;11470161;25;20419;-66
2024/04/19 09:52:38;;;;;;;3.80;3.30;;;;;;;7.19;98.07;99443.56;11452074;25;20001;-66
2024/04/19 09:57:45;;;;;;;3.63;3.33;;;;;;;7.27;98.95;99443.81;11469920;25;20006;-66
2024/04/19 10:02:47;;;;;;;2.95;2.60;;;;;;;7.30;97.75;99438.28;11413547;25;20012;-66
2024/04/19 10:07:50;;;;;;;4.68;3.30;;;;;;;7.45;99.80;99452.09;11449199;25;20454;-65
2024/04/19 10:12:51;;;;;;;4.30;2.40;;;;;;;7.30;97.91;99429.50;11471375;25;19992;-67
2024/04/19 10:17:53;;;;;;;2.65;2.13;;;;;;;7.38;98.16;99424.44;11448306;25;20042;-66
2024/04/19 10:22:55;;;;;;;2.63;2.10;;;;;;;7.54;98.57;99432.00;11455996;25;20123;-66
2024/04/19 10:27:56;;;;;;;2.30;2.10;;;;;;;7.48;98.61;99406.00;11482138;25;20098;-66
2024/04/19 10:32:59;;;;;;;3.15;2.42;;;;;;;7.65;98.48;99401.97;11373900;25;20080;-66
2024/04/19 10:38:01;;;;;;;2.30;2.10;;;;;;;7.61;99.16;99380.19;11450816;25;20016;-66
2024/04/19 10:43:06;;;;;;;3.85;2.35;;;;;;;7.58;99.84;99353.94;11459091;25;20012;-68
2024/04/19 10:48:09;;;;;;;4.35;2.70;;;;;;;7.83;100.00;99368.66;11446403;25;20156;-66
2024/04/19 10:53:12;;;;;;;3.10;2.60;;;;;;;7.93;99.93;99364.28;11419071;25;20025;-66
2024/04/19 10:58:16;;;;;;;3.00;2.80;;;;;;;8.07;99.60;99357.81;11422648;25;20028;-66
2024/04/19 11:03:17;;;;;;;2.33;2.13;;;;;;;8.21;99.78;99339.91;11485577;25;20021;-68
2024/04/19 11:08:22;;;;;;;4.25;3.17;;;;;;;8.27;99.06;99340.22;11432735;25;20123;-66
2024/04/19 11:13:24;;;;;;;2.35;1.95;;;;;;;8.14;97.18;99316.56;11432098;25;20127;-66
2024/04/19 11:18:28;;;;;;;2.92;2.10;;;;;;;8.26;97.75;99327.09;11455266;25;19996;-68
2024/04/19 11:23:33;;;;;;;1.88;1.73;;;;;;;8.24;96.85;99306.03;11440068;25;20005;-66
2024/04/19 11:28:35;;;;;;;1.63;1.42;;;;;;;8.20;96.83;99303.78;11479628;25;20155;-66
2024/04/19 11:33:36;;;;;;;3.15;1.70;;;;;;;8.30;98.74;99301.97;11472164;25;20012;-66
2024/04/19 11:38:38;;;;;;;2.00;1.77;;;;;;;8.47;99.25;99279.34;11461875;25;19998;-66
2024/04/19 11:43:41;;;;;;;1.40;1.27;;;;;;;8.54;97.93;99280.50;11417928;25;20430;-66
2024/04/19 11:48:44;;;;;;;2.10;1.90;;;;;;;8.50;98.87;99265.81;11448667;25;20001;-66
2024/04/19 11:53:46;;;;;;;2.67;1.67;;;;;;;8.40;100.00;99275.53;11441027;25;20004;-66
2024/04/19 11:58:52;;;;;;;1.85;1.60;;;;;;;8.51;100.00;99261.34;11467598;25;20007;-66
2024/04/19 12:03:54;;;;;;;2.65;2.05;;;;;;;8.38;100.00;99240.34;11479055;25;20006;-65
2024/04/19 12:08:56;;;;;;;2.38;1.98;;;;;;;8.54;99.97;99251.31;11468954;25;20449;-66
2024/04/19 12:13:58;;;;;;;2.58;2.30;;;;;;;8.58;100.00;99238.63;11424182;25;20001;-67
2024/04/19 12:19:20;;;;;;;2.72;2.10;;;;;;;8.83;100.00;99235.47;11442949;25;19992;-67
2024/04/19 12:24:23;;;;;;;2.30;2.08;;;;;;;8.98;98.73;99224.47;11483217;25;20019;-67
2024/04/19 12:29:27;;;;;;;1.83;1.67;;;;;;;9.10;99.01;99215.38;11455572;25;20000;-63
2024/04/19 12:34:30;;;;;;;1.95;1.80;;;;;;;9.30;97.63;99204.75;11421424;25;20212;-65
2024/04/19 12:39:32;;;;;;;3.30;1.70;;;;;;;9.43;96.67;99205.28;11478142;25;19998;-64
2024/04/19 12:44:34;;;;;;;2.08;1.90;;;;;;;9.55;96.94;99182.91;11454336;25;20001;-67
2024/04/19 12:49:36;;;;;;;3.25;2.10;;;;;;;9.79;98.89;99172.75;11444496;25;20353;-65
2024/04/19 12:54:38;;;;;;;2.35;1.90;;;;;;;9.62;97.47;99167.22;11457261;25;20016;-66
2024/04/19 12:59:41;;;;;;;4.35;1.77;;;;;;;9.44;98.81;99161.78;11415781;25;20017;-65
2024/04/19 13:04:43;;;;;;;2.83;2.60;;;;;;;9.19;99.12;99140.19;11427956;25;20091;-67
2024/04/19 13:09:45;;;;;;;3.35;2.10;;;;;;;9.27;100.00;99146.63;11468900;25;19998;-65
2024/04/19 13:14:47;;;;;;;3.22;2.45;;;;;;;9.27;100.00;99154.56;11425922;25;20011;-66
2024/04/19 13:19:52;;;;;;;3.78;2.30;;;;;;;9.21;100.00;99155.97;11459473;25;20006;-65
2024/04/19 13:24:53;;;;;;;3.17;2.47;;;;;;;9.29;100.00;99165.88;11434403;25;20001;-66
2024/04/19 13:29:55;;;;;;;2.95;2.63;;;;;;;9.30;100.00;99184.34;11406452;25;20070;-65
2024/04/19 13:34:59;;;;;;;2.58;2.22;;;;;;;9.34;100.00;99180.41;11453427;25;19997;-67
2024/04/19 13:40:03;;;;;;;2.67;2.08;;;;;;;9.32;100.00;99200.97;11474691;25;19996;-66
2024/04/19 13:45:05;;;;;;;3.15;1.52;;;;;;;9.28;100.00;99182.81;11437207;25;19998;-66
2024/04/19 13:50:08;;;;;;;2.30;0.45;;;;;;;9.43;100.00;99199.13;11456136;25;20029;-66
2024/04/19 13:55:10;;;;;;;0.75;0.22;;;;;;;9.33;99.94;99196.50;11454660;25;20004;-65
2024/04/19 14:00:14;;;;;;;2.65;0.30;;;;;;;9.07;98.82;99213.00;11445714;25;20125;-66
2024/04/19 14:05:15;;;;;;;1.60;0.20;;;;;;;9.10;100.00;99214.56;11476120;25;20006;-66
2024/04/19 14:10:17;;;;;;;0.70;0.30;;;;;;;9.18;99.88;99206.72;11462924;25;20108;-67
2024/04/19 14:15:18;;;;;;;0.45;0.20;;;;;;;9.29;99.69;99181.81;11445835;25;20443;-65
2024/04/19 14:20:21;;;;;;;0.38;0.10;;;;;;;9.10;98.12;99204.75;11426826;25;20711;-67
2024/04/19 14:25:23;;;;;;;1.42;0.15;;;;;;;9.27;100.00;99205.03;11428866;25;20027;-69
2024/04/19 14:30:24;;;;;;;1.48;0.52;;;;;;;9.53;97.27;99189.31;11441790;25;20011;-66
2024/04/19 14:35:26;;;;;;;1.15;0.20;;;;;;;9.60;95.74;99184.28;11442981;25;20507;-66
2024/04/19 14:40:28;;;;;;;0.43;0.10;;;;;;;9.78;96.53;99187.03;11477101;25;19996;-67
2024/04/19 14:45:30;;;;;;;0.65;0.22;;;;;;;9.48;92.92;99176.47;11469167;25;20741;-66
2024/04/19 14:50:32;;;;;;;0.40;0.20;;;;;;;9.46;93.85;99175.78;11431545;25;20006;-67
2024/04/19 14:55:34;;;;;;;1.05;0.10;;;;;;;9.45;94.77;99173.28;11440877;25;20000;-66
2024/04/19 15:00:35;;;;;;;0.50;0.20;;;;;;;9.50;95.21;99161.25;11465845;25;20015;-65
2024/04/19 15:05:37;;;;;;;0.68;0.40;;;;;;;9.33;92.27;99138.06;11475716;25;20004;-64
2024/04/19 15:10:39;;;;;;;1.25;0.28;;;;;;;9.35;92.66;99165.31;11472994;25;20008;-67
2024/04/19 15:15:41;;;;;;;1.02;0.20;;;;;;;9.17;93.42;99126.22;11454189;25;19997;-66
2024/04/19 15:20:43;;;;;;;0.30;0.10;;;;;;;9.57;93.48;99173.97;11422980;25;20005;-64
2024/04/19 15:25:45;;;;;;;0.45;0.17;;;;;;;9.48;93.15;99171.16;11473647;25;20012;-67
2024/04/19 15:30:46;;;;;;;0.90;0.20;;;;;;;9.55;94.40;99161.66;11478252;25;20001;-66
2024/04/19 15:35:48;;;;;;;0.57;0.20;;;;;;;9.55;92.32;99152.84;11469803;25;20009;-67
2024/04/19 15:40:50;;;;;;;0.98;0.22;;;;;;;9.40;92.88;99168.41;11481006;25;20423;-67
2024/04/19 15:45:53;;;;;;;1.17;0.10;;;;;;;9.26;93.15;99156.38;11429643;25;20054;-66
2024/04/19 15:50:55;;;;;;;1.23;0.35;;;;;;;9.40;95.15;99181.69;11456487;25;20425;-66
2024/04/19 15:55:57;;;;;;;1.02;0.45;;;;;;;9.62;95.81;99177.84;11430886;25;19998;-68
2024/04/19 16:01:10;;;;;;;0.70;0.10;;;;;;;9.45;92.82;99155.50;11407668;25;20009;-68
2024/04/19 16:06:12;;;;;;;1.88;0.20;;;;;;;9.23;89.72;99150.53;11446546;25;20187;-67
2024/04/19 16:11:13;;;;;;;0.98;0.10;;;;;;;9.26;90.57;99140.44;11454661;25;20023;-66
2024/04/19 16:16:16;;;;;;;1.77;0.30;;;;;;;9.40;90.22;99146.28;11409786;25;20073;-66
2024/04/19 16:21:18;;;;;;;0.75;0.25;;;;;;;9.33;88.21;99140.72;11435383;25;20003;-65
2024/04/19 16:26:20;;;;;;;0.28;0.00;;;;;;;9.27;86.27;99184.63;11469677;25;19999;-65
2024/04/19 16:31:21;;;;;;;0.43;0.10;;;;;;;9.32;90.63;99197.47;11475004;25;20015;-68
2024/04/19 16:36:23;;;;;;;0.60;0.20;;;;;;;9.49;88.59;99198.59;11463995;25;20003;-67
2024/04/19 16:41:24;;;;;;;1.00;0.10;;;;;;;9.34;89.02;99187.56;11455938;25;20010;-68
2024/04/19 16:46:26;;;;;;;0.50;0.13;;;;;;;9.30;86.51;99210.06;11431761;25;20011;-69
2024/04/19 16:51:27;;;;;;;1.17;0.20;;;;;;;9.45;89.41;99211.28;11427760;25;20001;-69
2024/04/19 16:56:29;;;;;;;0.80;0.10;;;;;;;9.55;87.40;99208.63;11478261;25;20278;-72
2024/04/19 17:01:31;;;;;;;1.55;0.13;;;;;;;9.68;88.01;99224.25;11381353;25;20004;-71
2024/04/19 17:06:36;;;;;;;1.63;0.30;;;;;;;9.67;87.77;99230.56;11458354;25;20000;-69
2024/04/19 17:11:38;;;;;;;0.38;0.10;;;;;;;9.61;83.88;99228.47;11460282;25;20127;-69
2024/04/19 17:16:39;;;;;;;1.35;0.30;;;;;;;9.84;85.70;99229.81;11426231;25;20031;-71
2024/04/19 17:21:41;;;;;;;0.55;0.10;;;;;;;9.80;81.41;99254.16;11455429;25;20422;-69
2024/04/19 17:26:43;;;;;;;0.50;0.10;;;;;;;9.52;78.78;99238.16;11479669;25;20011;-69
2024/04/19 17:31:45;;;;;;;2.13;1.38;;;;;;;9.47;81.27;99243.88;11475430;25;20677;-70
2024/04/19 17:36:49;;;;;;;1.65;0.95;;;;;;;9.28;79.53;99250.03;11379651;25;20119;-70
2024/04/19 17:41:51;;;;;;;1.17;0.40;;;;;;;9.07;79.23;99260.78;11446980;25;20021;-69
2024/04/19 17:46:53;;;;;;;1.15;0.60;;;;;;;9.11;83.08;99264.84;11493797;25;19998;-69
2024/04/19 17:51:55;;;;;;;1.70;0.95;;;;;;;9.17;80.61;99258.13;11494363;25;20537;-68
2024/04/19 17:56:57;;;;;;;1.30;0.60;;;;;;;8.96;80.68;99274.16;11492542;25;20106;-69
2024/04/19 18:01:58;;;;;;;2.28;0.95;;;;;;;8.99;81.03;99313.72;11446208;25;20135;-69
2024/04/19 18:07:03;;;;;;;3.15;1.27;;;;;;;9.00;83.16;99310.09;11485328;25;20067;-68
2024/04/19 18:12:12;;;;;;;2.03;1.27;;;;;;;8.89;82.50;99316.34;11400159;25;21671;-67
2024/04/19 18:17:14;;;;;;;1.92;1.42;;;;;;;8.73;83.09;99327.47;11398310;25;20478;-67
2024/04/19 18:22:15;;;;;;;1.67;1.50;;;;;;;8.83;84.48;99325.69;11420946;25;20072;-70
2024/04/19 18:27:17;;;;;;;1.33;0.70;;;;;;;8.52;81.62;99332.00;11457821;25;20780;-72
2024/04/19 18:32:18;;;;;;;1.45;0.60;;;;;;;8.41;80.46;99332.91;11448226;25;20016;-67
2024/04/19 18:37:24;;;;;;;1.52;0.70;;;;;;;8.41;80.70;99327.59;11396672;25;20004;-67
2024/04/19 18:42:26;;;;;;;2.85;1.00;;;;;;;8.27;79.57;99345.53;11456761;25;20055;-68
2024/04/19 18:47:29;;;;;;;4.88;2.58;;;;;;;8.35;79.98;99350.19;11463729;25;19993;-67
2024/04/19 18:52:32;;;;;;;4.93;3.28;;;;;;;8.47;79.51;99357.09;11482136;25;20007;-68
2024/04/19 18:57:35;;;;;;;2.00;0.80;;;;;;;8.40;78.63;99366.53;11483647;25;20031;-69
2024/04/19 19:02:39;;;;;;;2.67;0.77;;;;;;;8.25;79.85;99375.78;11428453;25;20026;-67
2024/04/19 19:07:43;;;;;;;2.05;0.70;;;;;;;8.23;81.79;99369.78;11453467;25;20009;-67
2024/04/19 19:12:46;;;;;;;1.08;0.40;;;;;;;8.25;81.17;99357.22;11467794;25;20005;-69
2024/04/19 19:17:48;;;;;;;2.90;2.05;;;;;;;8.17;81.07;99372.94;11474155;25;19997;-66
2024/04/19 19:22:50;;;;;;;1.83;0.75;;;;;;;8.03;80.60;99369.66;11471946;25;20023;-67
2024/04/19 19:27:51;;;;;;;2.80;0.70;;;;;;;8.34;83.16;99387.44;11474444;25;20459;-68
2024/04/19 19:32:56;;;;;;;4.10;1.05;;;;;;;8.42;81.96;99379.66;11473982;25;20019;-68
2024/04/19 19:37:58;;;;;;;2.40;0.65;;;;;;;8.51;82.85;99392.16;11441567;25;20105;-66
2024/04/19 19:42:59;;;;;;;2.10;0.70;;;;;;;8.60;81.95;99406.44;11380436;25;20001;-68
2024/04/19 19:48:01;;;;;;;3.63;0.60;;;;;;;8.59;81.54;99404.78;11431130;25;20008;-66
2024/04/19 19:53:03;;;;;;;3.40;1.40;;;;;;;8.51;82.33;99416.03;11435853;25;20735;-67
2024/04/19 19:58:04;;;;;;;2.72;1.70;;;;;;;8.54;82.51;99409.63;11413267;25;19997;-66
2024/04/19 20:08:26;;;;;;;3.65;2.60;;;;;;;8.34;81.48;99392.72;11437961;25;20005;-65
2024/04/19 20:13:27;;;;;;;5.57;1.48;;;;;;;8.36;80.45;99427.91;11350932;25;20189;-66
2024/04/19 20:18:29;;;;;;;3.42;1.55;;;;;;;8.41;81.87;99441.63;11427018;25;20001;-65
2024/04/19 20:23:32;;;;;;;3.42;1.23;;;;;;;8.44;80.02;99447.53;11479189;25;20030;-66
2024/04/19 20:28:34;;;;;;;3.78;1.23;;;;;;;8.37;81.63;99450.81;11436945;25;20428;-66
2024/04/19 20:33:36;;;;;;;2.60;1.63;;;;;;;8.36;80.97;99455.28;11421268;25;20015;-65
2024/04/19 20:38:40;;;;;;;3.40;1.00;;;;;;;8.15;80.37;99457.88;11454448;25;20005;-65
2024/04/19 20:43:42;;;;;;;2.35;1.65;;;;;;;7.96;80.26;99474.50;11490201;25;19996;-67
2024/04/19 20:48:46;;;;;;;3.37;0.70;;;;;;;8.16;80.46;99472.84;11408318;25;19997;-68
2024/04/19 20:53:49;;;;;;;2.25;1.08;;;;;;;8.30;80.10;99476.97;11417775;25;20016;-66
2024/04/19 20:58:50;;;;;;;1.30;0.70;;;;;;;8.24;81.16;99493.41;11449957;25;20015;-68
2024/04/19 21:03:54;;;;;;;4.13;0.83;;;;;;;8.14;81.75;99456.22;11449502;25;19996;-66
2024/04/19 21:08:59;;;;;;;2.60;1.00;;;;;;;8.31;79.75;99495.41;11423323;25;20096;-64
2024/04/19 21:14:01;;;;;;;2.17;0.40;;;;;;;8.31;79.68;99507.84;11431128;25;19998;-64
2024/04/19 21:19:03;;;;;;;1.50;0.30;;;;;;;8.18;78.37;99509.81;11391242;25;20012;-64
2024/04/19 21:24:05;;;;;;;3.20;0.55;;;;;;;8.02;78.17;99519.03;11403672;25;20018;-63
2024/04/19 21:29:08;;;;;;;1.65;0.75;;;;;;;8.08;77.70;99515.88;11404667;25;20745;-65
2024/04/19 21:34:12;;;;;;;3.45;0.52;;;;;;;8.15;77.88;99526.81;11392823;25;20017;-64
2024/04/19 21:39:13;;;;;;;0.88;0.30;;;;;;;8.06;77.78;99523.13;11430489;25;20024;-63
2024/04/19 21:44:15;;;;;;;1.58;0.57;;;;;;;8.20;78.36;99523.81;11458424;25;20012;-64
2024/04/19 21:49:20;;;;;;;1.75;1.00;;;;;;;8.24;78.40;99519.91;11457173;25;20000;-64
2024/04/19 21:54:24;;;;;;;2.40;0.80;;;;;;;8.12;78.10;99522.63;11371183;25;20055;-63
2024/04/19 21:59:26;;;;;;;1.65;0.77;;;;;;;8.10;79.83;99519.25;11366815;25;20859;-63
2024/04/19 22:04:28;;;;;;;1.55;0.90;;;;;;;8.15;79.77;99526.81;11407771;25;20073;-64
2024/04/19 22:09:31;;;;;;;2.70;1.30;;;;;;;8.11;79.90;99520.94;11374901;25;20075;-64
2024/04/19 22:14:33;;;;;;;1.95;1.15;;;;;;;7.96;80.72;99540.75;11445771;25;19992;-64
2024/04/19 22:19:37;;;;;;;3.17;0.98;;;;;;;7.83;80.51;99537.41;11490990;25;20508;-62
2024/04/19 22:24:40;;;;;;;1.98;1.50;;;;;;;8.08;80.99;99558.31;11455032;25;20009;-64
2024/04/19 22:29:42;;;;;;;4.32;1.20;;;;;;;8.05;80.82;99566.50;11359669;25;20022;-63
2024/04/19 22:34:47;;;;;;;4.28;0.88;;;;;;;8.03;80.29;99557.84;11423327;25;20005;-64
2024/04/19 22:39:52;;;;;;;;;;;;;;;8.19;80.74;99583.94;11441601;25;20049;-64
2024/04/19 22:44:54;;;;;;;2.42;0.90;;;;;;;8.16;80.34;99580.69;11458941;25;19922;-63
2024/04/19 22:49:57;;;;;;;1.48;1.30;;;;;;;8.05;81.36;99593.00;11459388;25;19997;-64
2024/04/19 22:54:59;;;;;;;3.80;0.95;;;;;;;8.14;81.15;99605.50;11444652;25;20005;-63
2024/04/19 23:00:01;;;;;;;2.22;1.27;;;;;;;8.18;83.14;99622.03;11450463;25;20676;-64
2024/04/19 23:05:04;;;;;;;3.40;1.35;;;;;;;8.30;84.02;99618.38;11459712;25;19998;-64
2024/04/19 23:10:06;;;;;;;5.07;1.25;;;;;;;8.30;83.68;99612.22;11423590;25;19996;-63
2024/04/19 23:15:10;;;;;;;6.25;1.42;;;;;;;8.19;84.47;99622.88;11401670;25;20009;-65
2024/04/19 23:20:11;;;;;;;4.75;2.08;;;;;;;8.12;86.23;99627.81;11454077;25;20016;-63
2024/04/19 23:25:13;;;;;;;3.42;1.38;;;;;;;8.19;86.17;99639.59;11442099;25;20016;-63
2024/04/19 23:30:15;;;;;;;2.58;1.08;;;;;;;8.02;84.83;99650.75;11457208;25;20000;-64
2024/04/19 23:35:16;;;;;;;1.02;0.75;;;;;;;7.53;83.99;99639.53;11434009;25;20053;-64
2024/04/19 23:40:18;;;;;;;1.38;0.70;;;;;;;7.57;84.66;99638.31;11409630;25;20008;-63
2024/04/19 23:45:20;;;;;;;1.70;0.43;;;;;;;7.53;82.62;99647.47;11461736;25;20103;-63
2024/04/19 23:50:23;;;;;;;1.55;0.55;;;;;;;7.61;83.43;99648.56;11369405;25;20407;-65